createdAt,value
2023-05-25T00:01:02.774Z,7.63
2023-05-25T00:03:32.025Z,8.13
2023-05-25T00:06:01.616Z,8.57
2023-05-25T00:08:28.853Z,8.10
2023-05-25T00:10:55.457Z,8.23
2023-05-25T00:13:21.973Z,8.23
2023-05-25T00:15:49.049Z,8.33
2023-05-25T00:18:15.779Z,8.40
2023-05-25T00:20:44.713Z,10.33
2023-05-25T00:23:11.286Z,12.77
2023-05-25T00:25:37.895Z,11.20
2023-05-25T00:28:04.649Z,8.63
2023-05-25T00:30:31.190Z,8.17
2023-05-25T00:32:57.731Z,7.67
2023-05-25T00:35:24.308Z,7.70
2023-05-25T00:37:51.680Z,7.07
2023-05-25T00:40:18.700Z,7.47
2023-05-25T00:42:45.240Z,7.70
2023-05-25T00:45:11.800Z,6.73
2023-05-25T00:47:39.800Z,6.67
2023-05-25T00:50:08.682Z,6.73
2023-05-25T00:52:35.494Z,7.37
2023-05-25T00:55:02.562Z,7.50
2023-05-25T00:57:34.406Z,10.27
2023-05-25T01:00:02.409Z,11.93
2023-05-25T01:02:29.695Z,9.77
2023-05-25T01:04:59.840Z,7.33
2023-05-25T01:07:27.112Z,7.80
2023-05-25T01:10:06.349Z,7.73
2023-05-25T01:12:37.472Z,9.27
2023-05-25T01:15:04.850Z,8.70
2023-05-25T01:17:32.338Z,7.23
2023-05-25T01:20:09.450Z,8.00
2023-05-25T01:22:48.066Z,7.57
2023-05-25T01:25:23.057Z,7.43
2023-05-25T01:28:02.065Z,8.33
2023-05-25T01:30:30.595Z,12.03
2023-05-25T01:32:57.256Z,11.03
2023-05-25T01:35:24.754Z,11.27
2023-05-25T01:37:52.118Z,13.27
2023-05-25T01:40:18.628Z,11.27
2023-05-25T01:42:45.173Z,12.77
2023-05-25T01:45:13.713Z,8.90
2023-05-25T01:47:44.194Z,10.43
2023-05-25T01:50:13.874Z,10.13
2023-05-25T01:52:43.115Z,8.83
2023-05-25T01:55:12.706Z,9.53
2023-05-25T01:57:42.735Z,10.57
2023-05-25T02:00:10.230Z,9.57
2023-05-25T02:02:37.320Z,10.87
2023-05-25T02:05:04.153Z,10.40
2023-05-25T02:07:31.903Z,10.60
2023-05-25T02:09:58.468Z,10.53
2023-05-25T02:12:25.218Z,9.67
2023-05-25T02:14:51.762Z,8.67
2023-05-25T02:17:19.772Z,8.07
2023-05-25T02:19:48.756Z,8.50
2023-05-25T02:22:15.369Z,8.07
2023-05-25T02:24:41.894Z,6.97
2023-05-25T02:27:08.497Z,7.63
2023-05-25T02:29:35.065Z,7.47
2023-05-25T02:32:01.662Z,8.83
2023-05-25T02:34:28.163Z,9.37
2023-05-25T02:36:54.716Z,7.67
2023-05-25T02:39:21.280Z,7.60
2023-05-25T02:41:47.788Z,6.70
2023-05-25T02:44:14.342Z,6.77
2023-05-25T02:46:41.079Z,7.03
2023-05-25T02:49:07.780Z,6.33
2023-05-25T02:51:34.283Z,6.50
2023-05-25T02:54:00.807Z,6.30
2023-05-25T02:56:27.776Z,7.00
2023-05-25T02:58:54.383Z,7.80
2023-05-25T03:01:21.087Z,8.00
2023-05-25T03:03:52.208Z,8.73
2023-05-25T03:06:19.312Z,8.40
2023-05-25T03:08:45.810Z,8.90
2023-05-25T03:11:12.317Z,8.77
2023-05-25T03:13:38.789Z,8.43
2023-05-25T03:16:05.769Z,8.70
2023-05-25T03:18:32.545Z,8.53
2023-05-25T03:20:59.180Z,7.57
2023-05-25T03:23:25.746Z,7.17
2023-05-25T03:25:52.355Z,7.53
2023-05-25T03:28:18.861Z,7.40
2023-05-25T03:30:45.928Z,6.77
2023-05-25T03:33:13.888Z,6.73
2023-05-25T03:35:40.546Z,6.57
2023-05-25T03:38:07.132Z,7.23
2023-05-25T03:40:33.631Z,7.20
2023-05-25T03:43:00.156Z,9.20
2023-05-25T03:45:26.720Z,8.10
2023-05-25T03:47:53.337Z,7.43
2023-05-25T03:50:20.499Z,6.57
2023-05-25T03:52:46.963Z,6.40
2023-05-25T03:55:15.319Z,6.03
2023-05-25T03:57:42.170Z,5.87
2023-05-25T04:00:11.656Z,6.17
2023-05-25T04:02:38.276Z,6.00
2023-05-25T04:05:05.005Z,6.30
2023-05-25T04:07:31.521Z,6.13
2023-05-25T04:10:01.066Z,5.55
2023-05-25T04:12:27.617Z,6.45
2023-05-25T04:14:54.168Z,6.40
2023-05-25T04:17:24.952Z,5.93
2023-05-25T04:19:52.269Z,6.35
2023-05-25T04:22:18.907Z,6.03
2023-05-25T04:24:46.104Z,6.30
2023-05-25T04:27:14.321Z,7.30
2023-05-25T04:29:43.675Z,6.60
2023-05-25T04:32:10.333Z,6.90
2023-05-25T04:34:36.963Z,6.60
2023-05-25T04:37:05.510Z,7.00
2023-05-25T04:39:32.820Z,7.13
2023-05-25T04:41:59.473Z,6.77
2023-05-25T04:44:26.016Z,6.10
2023-05-25T04:46:53.709Z,6.90
2023-05-25T04:49:20.287Z,6.53
2023-05-25T04:51:46.805Z,6.20
2023-05-25T04:54:13.402Z,6.10
2023-05-25T04:56:39.943Z,6.20
2023-05-25T04:59:07.225Z,6.73
2023-05-25T05:01:34.650Z,5.53
2023-05-25T05:04:01.274Z,5.40
2023-05-25T05:06:27.858Z,5.43
2023-05-25T05:08:54.384Z,5.47
2023-05-25T05:11:20.978Z,5.70
2023-05-25T05:13:47.487Z,5.53
2023-05-25T05:16:14.072Z,5.77
2023-05-25T05:18:40.660Z,5.20
2023-05-25T05:21:07.133Z,5.67
2023-05-25T05:23:34.755Z,5.63
2023-05-25T05:26:01.532Z,5.97
2023-05-25T05:28:28.507Z,5.60
2023-05-25T05:30:55.076Z,5.90
2023-05-25T05:33:23.951Z,5.77
2023-05-25T05:35:52.525Z,6.20
2023-05-25T05:38:19.414Z,5.63
2023-05-25T05:40:45.990Z,6.17
2023-05-25T05:43:13.093Z,6.13
2023-05-25T05:45:39.979Z,6.20
2023-05-25T05:48:09.930Z,5.80
2023-05-25T05:50:38.212Z,6.40
2023-05-25T05:53:06.363Z,6.30
2023-05-25T05:55:33.410Z,6.40
2023-05-25T05:57:59.903Z,6.27
2023-05-25T06:00:27.054Z,7.67
2023-05-25T06:02:53.667Z,6.87
2023-05-25T06:05:21.031Z,6.33
2023-05-25T06:07:48.064Z,6.60
2023-05-25T06:10:14.805Z,6.70
2023-05-25T06:12:45.310Z,6.00
2023-05-25T06:15:11.909Z,5.93
2023-05-25T06:17:38.502Z,7.07
2023-05-25T06:20:06.709Z,7.07
2023-05-25T06:22:33.597Z,6.57
2023-05-25T06:25:04.117Z,6.88
2023-05-25T06:27:30.669Z,6.45
2023-05-25T06:29:57.181Z,6.25
2023-05-25T06:32:23.722Z,7.47
2023-05-25T06:34:50.326Z,6.88
2023-05-25T06:37:16.938Z,6.00
2023-05-25T06:39:43.532Z,5.60
2023-05-25T06:42:11.640Z,5.23
2023-05-25T06:44:38.247Z,5.03
2023-05-25T06:47:04.798Z,4.80
2023-05-25T06:49:31.435Z,4.77
2023-05-25T06:51:57.914Z,4.55
2023-05-25T06:54:24.692Z,4.75
2023-05-25T06:56:51.465Z,4.80
2023-05-25T06:59:18.608Z,5.13
2023-05-25T07:01:48.704Z,5.85
2023-05-25T07:04:15.354Z,5.03
2023-05-25T07:06:41.912Z,5.63
2023-05-25T07:09:08.483Z,5.90
2023-05-25T07:11:35.039Z,5.05
2023-05-25T07:14:01.643Z,5.32
2023-05-25T07:16:28.206Z,5.13
2023-05-25T07:18:54.854Z,5.53
2023-05-25T07:21:21.500Z,5.85
2023-05-25T07:23:48.007Z,6.30
2023-05-25T07:26:15.140Z,6.05
2023-05-25T07:28:41.659Z,5.07
2023-05-25T07:31:08.466Z,5.80
2023-05-25T07:33:34.991Z,5.32
2023-05-25T07:36:01.580Z,5.55
2023-05-25T07:38:28.129Z,5.82
2023-05-25T07:40:54.645Z,5.47
2023-05-25T07:43:21.225Z,6.43
2023-05-25T07:45:47.710Z,6.25
2023-05-25T07:48:14.305Z,4.68
2023-05-25T07:50:40.877Z,5.70
2023-05-25T07:53:07.620Z,5.97
2023-05-25T07:55:34.183Z,5.95
2023-05-25T07:58:00.974Z,6.20
2023-05-25T08:00:27.699Z,5.57
2023-05-25T08:02:54.384Z,6.00
2023-05-25T08:05:21.011Z,5.60
2023-05-25T08:07:47.538Z,5.88
2023-05-25T08:10:14.129Z,5.30
2023-05-25T08:12:48.975Z,5.47
2023-05-25T08:15:17.264Z,5.43
2023-05-25T08:17:44.124Z,5.30
2023-05-25T08:20:11.152Z,5.03
2023-05-25T08:22:37.753Z,5.57
2023-05-25T08:25:05.288Z,5.20
2023-05-25T08:27:34.341Z,5.30
2023-05-25T08:30:02.366Z,4.65
2023-05-25T08:32:28.940Z,4.43
2023-05-25T08:34:55.554Z,3.78
2023-05-25T08:37:22.641Z,4.93
2023-05-25T08:39:49.175Z,5.55
2023-05-25T08:42:15.703Z,5.60
2023-05-25T08:44:42.479Z,5.75
2023-05-25T08:47:09.280Z,5.10
2023-05-25T08:49:38.517Z,5.05
2023-05-25T08:52:06.104Z,4.57
2023-05-25T08:54:34.588Z,4.57
2023-05-25T08:57:03.799Z,4.68
2023-05-25T08:59:33.308Z,4.50
2023-05-25T09:02:08.852Z,4.63
2023-05-25T09:04:35.889Z,4.40
2023-05-25T09:07:10.249Z,4.28
2023-05-25T09:09:38.809Z,4.45
2023-05-25T09:12:06.351Z,3.80
2023-05-25T09:14:37.918Z,3.70
2023-05-25T09:17:04.769Z,3.90
2023-05-25T09:19:31.251Z,4.00
2023-05-25T09:22:13.510Z,3.95
2023-05-25T09:24:41.552Z,3.55
2023-05-25T09:27:11.485Z,3.60
2023-05-25T09:29:38.109Z,3.97
2023-05-25T09:32:06.606Z,2.85
2023-05-25T09:34:36.305Z,3.60
2023-05-25T09:37:16.768Z,4.07
2023-05-25T09:39:44.654Z,3.70
2023-05-25T09:42:11.456Z,3.20
2023-05-25T09:44:38.616Z,3.53
2023-05-25T09:47:05.461Z,3.40
2023-05-25T09:49:32.209Z,3.08
2023-05-25T09:51:59.656Z,3.22
2023-05-25T09:54:27.025Z,3.38
2023-05-25T09:56:53.519Z,3.45
2023-05-25T09:59:20.168Z,3.08
2023-05-25T10:01:50.697Z,3.30
2023-05-25T10:04:17.336Z,3.65
2023-05-25T10:06:45.908Z,3.38
2023-05-25T10:09:14.707Z,3.58
2023-05-25T10:11:42.050Z,3.40
2023-05-25T10:14:09.479Z,3.58
2023-05-25T10:16:39.576Z,3.22
2023-05-25T10:19:21.884Z,3.20
2023-05-25T10:21:54.644Z,3.45
2023-05-25T10:24:21.265Z,3.83
2023-05-25T10:26:52.823Z,3.40
2023-05-25T10:29:20.640Z,3.50
2023-05-25T10:31:47.408Z,3.97
2023-05-25T10:34:14.759Z,4.20
2023-05-25T10:36:41.639Z,3.28
2023-05-25T10:39:09.346Z,3.67
2023-05-25T10:41:35.917Z,3.53
2023-05-25T10:44:02.481Z,3.40
2023-05-25T10:46:29.242Z,3.80
2023-05-25T10:49:02.452Z,3.20
2023-05-25T10:51:38.915Z,3.38
2023-05-25T10:54:05.658Z,3.25
2023-05-25T10:56:32.429Z,3.55
2023-05-25T10:58:59.227Z,4.32
2023-05-25T11:01:25.892Z,3.70
2023-05-25T11:04:11.074Z,3.65
2023-05-25T11:06:40.841Z,5.10
2023-05-25T11:09:07.776Z,4.60
2023-05-25T11:11:43.491Z,3.67
2023-05-25T11:14:31.889Z,3.22
2023-05-25T11:17:10.685Z,3.40
2023-05-25T11:19:44.449Z,3.22
2023-05-25T11:22:29.428Z,2.67
2023-05-25T11:24:57.655Z,3.30
2023-05-25T11:27:25.234Z,2.78
2023-05-25T11:29:52.570Z,2.45
2023-05-25T11:32:19.101Z,2.17
2023-05-25T11:34:47.577Z,2.65
2023-05-25T11:37:21.260Z,2.17
2023-05-25T11:39:48.955Z,2.25
2023-05-25T11:42:16.720Z,2.50
2023-05-25T11:44:43.626Z,2.20
2023-05-25T11:47:13.552Z,3.17
2023-05-25T11:49:42.045Z,2.67
2023-05-25T11:52:09.063Z,2.65
2023-05-25T11:54:35.928Z,2.33
2023-05-25T11:57:03.205Z,2.70
2023-05-25T11:59:32.449Z,2.20
2023-05-25T12:02:03.459Z,2.38
2023-05-25T12:04:31.118Z,2.72
2023-05-25T12:07:04.403Z,2.30
2023-05-25T12:09:33.041Z,2.38
2023-05-25T12:11:59.996Z,3.30
2023-05-25T12:14:26.769Z,2.83
2023-05-25T12:16:53.523Z,2.72
2023-05-25T12:19:21.393Z,2.85
2023-05-25T12:21:51.174Z,2.75
2023-05-25T12:24:18.184Z,2.50
2023-05-25T12:26:51.624Z,2.00
2023-05-25T12:29:18.154Z,2.40
2023-05-25T12:31:45.035Z,2.28
2023-05-25T12:34:18.890Z,2.40
2023-05-25T12:36:50.716Z,2.03
2023-05-25T12:39:29.520Z,2.33
2023-05-25T12:41:56.877Z,2.13
2023-05-25T12:44:33.190Z,2.30
2023-05-25T12:47:13.536Z,2.05
2023-05-25T12:49:41.097Z,2.25
2023-05-25T12:52:08.630Z,2.15
2023-05-25T12:54:41.087Z,2.33
2023-05-25T12:57:08.490Z,1.90
2023-05-25T12:59:36.046Z,2.28
2023-05-25T13:02:03.077Z,2.05
2023-05-25T13:04:29.763Z,2.30
2023-05-25T13:06:56.373Z,2.30
2023-05-25T13:09:26.997Z,2.40
2023-05-25T13:11:54.763Z,2.50
2023-05-25T13:14:22.110Z,2.70
2023-05-25T13:16:49.372Z,2.35
2023-05-25T13:19:16.021Z,2.88
2023-05-25T13:21:42.668Z,3.28
2023-05-25T13:24:09.350Z,3.15
2023-05-25T13:26:35.857Z,3.05
2023-05-25T13:29:02.404Z,3.42
2023-05-25T13:31:28.995Z,3.00
2023-05-25T13:33:57.302Z,3.33
2023-05-25T13:36:23.815Z,3.40
2023-05-25T13:38:50.420Z,3.50
2023-05-25T13:41:18.629Z,3.60
2023-05-25T13:43:45.180Z,4.30
2023-05-25T13:46:18.460Z,3.80
2023-05-25T13:48:52.793Z,4.00
2023-05-25T13:51:19.745Z,3.80
2023-05-25T13:53:46.833Z,4.37
2023-05-25T13:56:13.483Z,3.80
2023-05-25T13:58:40.130Z,3.90
2023-05-25T14:01:06.751Z,4.87
2023-05-25T14:03:33.508Z,4.10
2023-05-25T14:06:00.152Z,4.43
2023-05-25T14:08:26.761Z,4.03
2023-05-25T14:10:53.470Z,4.50
2023-05-25T14:13:20.026Z,4.73
2023-05-25T14:15:46.860Z,4.00
2023-05-25T14:18:13.690Z,4.27
2023-05-25T14:20:42.856Z,4.27
2023-05-25T14:23:10.909Z,4.40
2023-05-25T14:25:39.734Z,4.47
2023-05-25T14:28:06.438Z,4.10
2023-05-25T14:30:32.967Z,4.22
2023-05-25T14:32:59.482Z,4.10
2023-05-25T14:35:26.176Z,4.17
2023-05-25T14:37:52.744Z,3.90
2023-05-25T14:40:19.834Z,3.60
2023-05-25T14:42:46.379Z,4.20
2023-05-25T14:45:14.546Z,4.30
2023-05-25T14:47:43.012Z,4.70
2023-05-25T14:50:09.735Z,4.53
2023-05-25T14:52:37.404Z,4.93
2023-05-25T14:55:03.989Z,4.60
2023-05-25T14:57:30.833Z,4.40
2023-05-25T14:59:57.486Z,4.10
2023-05-25T15:02:24.161Z,4.37
2023-05-25T15:04:50.965Z,4.50
2023-05-25T15:07:17.485Z,4.03
2023-05-25T15:09:45.376Z,4.47
2023-05-25T15:12:11.999Z,4.50
2023-05-25T15:14:40.827Z,4.57
2023-05-25T15:17:07.312Z,4.73
2023-05-25T15:19:33.945Z,5.40
2023-05-25T15:22:00.545Z,4.90
2023-05-25T15:24:27.034Z,4.90
2023-05-25T15:26:53.610Z,4.90
2023-05-25T15:29:20.139Z,5.77
2023-05-25T15:31:46.649Z,5.73
2023-05-25T15:34:13.169Z,5.93
2023-05-25T15:36:39.715Z,5.83
2023-05-25T15:39:08.955Z,6.17
2023-05-25T15:41:35.703Z,6.67
2023-05-25T15:44:02.236Z,6.77
2023-05-25T15:46:28.928Z,7.10
2023-05-25T15:48:55.842Z,6.40
2023-05-25T15:51:22.380Z,6.70
2023-05-25T15:53:48.970Z,6.40
2023-05-25T15:56:15.805Z,5.70
2023-05-25T15:58:42.359Z,6.50
2023-05-25T16:01:09.464Z,6.70
2023-05-25T16:03:47.952Z,7.90
2023-05-25T16:06:14.502Z,7.60
2023-05-25T16:08:41.054Z,7.53
2023-05-25T16:11:07.678Z,8.07
2023-05-25T16:13:34.178Z,8.07
2023-05-25T16:16:00.844Z,6.93
2023-05-25T16:18:27.515Z,6.53
2023-05-25T16:20:57.703Z,6.93
2023-05-25T16:23:24.594Z,7.23
2023-05-25T16:25:51.120Z,7.40
2023-05-25T16:28:17.639Z,7.40
2023-05-25T16:30:44.153Z,6.50
2023-05-25T16:33:10.932Z,7.27
2023-05-25T16:35:37.630Z,7.27
2023-05-25T16:38:04.371Z,6.73
2023-05-25T16:40:31.670Z,6.50
2023-05-25T16:42:58.232Z,6.63
2023-05-25T16:45:24.812Z,7.00
2023-05-25T16:47:51.433Z,6.93
2023-05-25T16:50:18.675Z,6.27
2023-05-25T16:52:45.204Z,6.37
2023-05-25T16:55:11.763Z,6.83
2023-05-25T16:57:38.223Z,6.17
2023-05-25T17:00:05.175Z,5.60
2023-05-25T17:02:31.799Z,5.97
2023-05-25T17:04:58.320Z,5.77
2023-05-25T17:07:24.858Z,5.30
2023-05-25T17:09:51.426Z,5.00
2023-05-25T17:12:18.009Z,4.83
2023-05-25T17:14:44.572Z,5.00
2023-05-25T17:17:11.145Z,4.03
2023-05-25T17:19:37.657Z,4.47
2023-05-25T17:22:04.347Z,4.40
2023-05-25T17:24:30.991Z,4.97
2023-05-25T17:26:57.811Z,4.43
2023-05-25T17:29:24.298Z,4.40
2023-05-25T17:31:50.901Z,4.60
2023-05-25T17:34:17.468Z,4.90
2023-05-25T17:36:44.106Z,4.90
2023-05-25T17:39:10.763Z,5.43
2023-05-25T17:41:37.287Z,4.93
2023-05-25T17:44:03.800Z,4.80
2023-05-25T17:46:30.519Z,7.50
2023-05-25T17:48:57.086Z,7.43
2023-05-25T17:51:23.653Z,6.93
2023-05-25T17:53:50.216Z,6.10
2023-05-25T17:56:16.681Z,6.40
2023-05-25T17:58:47.322Z,5.30
2023-05-25T18:01:15.035Z,4.73
2023-05-25T18:03:41.825Z,5.30
2023-05-25T18:06:08.438Z,5.23
2023-05-25T18:08:34.953Z,5.53
2023-05-25T18:11:01.791Z,5.03
2023-05-25T18:13:28.332Z,5.23
2023-05-25T18:15:54.884Z,5.23
2023-05-25T18:18:24.756Z,6.70
2023-05-25T18:20:51.302Z,6.67
2023-05-25T18:23:17.900Z,7.17
2023-05-25T18:25:45.693Z,7.37
2023-05-25T18:28:15.010Z,7.20
2023-05-25T18:30:45.046Z,7.53
2023-05-25T18:33:11.678Z,5.53
2023-05-25T18:35:38.291Z,5.53
2023-05-25T18:38:07.370Z,5.90
2023-05-25T18:40:33.949Z,5.60
2023-05-25T18:43:00.701Z,5.73
2023-05-25T18:45:27.308Z,5.40
2023-05-25T18:47:53.887Z,5.20
2023-05-25T18:50:20.742Z,4.53
2023-05-25T18:52:50.916Z,4.63
2023-05-25T18:55:18.486Z,4.70
2023-05-25T18:57:45.044Z,4.60
2023-05-25T19:00:11.934Z,4.30
2023-05-25T19:02:38.754Z,5.03
2023-05-25T19:05:05.715Z,4.73
2023-05-25T19:07:32.308Z,4.50
2023-05-25T19:09:58.843Z,4.47
2023-05-25T19:12:25.503Z,5.00
2023-05-25T19:14:52.051Z,4.93
2023-05-25T19:17:18.566Z,5.30
2023-05-25T19:19:45.042Z,5.97
2023-05-25T19:22:11.596Z,5.60
2023-05-25T19:24:41.361Z,5.77
2023-05-25T19:27:09.422Z,5.73
2023-05-25T19:29:35.943Z,6.40
2023-05-25T19:32:02.480Z,6.37
2023-05-25T19:34:29.095Z,6.23
2023-05-25T19:37:07.590Z,6.10
2023-05-25T19:39:37.313Z,6.67
2023-05-25T19:42:03.896Z,5.90
2023-05-25T19:44:30.925Z,6.00
2023-05-25T19:46:57.534Z,5.53
2023-05-25T19:49:24.101Z,5.60
2023-05-25T19:51:50.606Z,5.60
2023-05-25T19:54:24.283Z,5.53
2023-05-25T19:56:50.825Z,5.53
2023-05-25T19:59:17.314Z,5.73
2023-05-25T20:01:43.856Z,5.20
2023-05-25T20:04:10.359Z,5.47
2023-05-25T20:06:37.607Z,5.27
2023-05-25T20:09:04.605Z,4.73
2023-05-25T20:11:33.482Z,5.13
2023-05-25T20:13:59.974Z,5.30
2023-05-25T20:16:26.752Z,5.30
2023-05-25T20:18:57.928Z,5.30
2023-05-25T20:21:25.045Z,5.00
2023-05-25T20:23:51.872Z,6.83
2023-05-25T20:26:18.429Z,5.37
2023-05-25T20:28:45.047Z,5.27
2023-05-25T20:31:11.628Z,5.77
2023-05-25T20:33:38.329Z,5.47
2023-05-25T20:36:04.914Z,5.03
2023-05-25T20:38:31.506Z,5.53
2023-05-25T20:40:58.070Z,5.47
2023-05-25T20:43:24.614Z,4.93
2023-05-25T20:45:51.373Z,5.23
2023-05-25T20:48:18.068Z,4.97
2023-05-25T20:50:44.804Z,5.73
2023-05-25T20:53:11.649Z,4.70
2023-05-25T20:55:38.288Z,4.87
2023-05-25T20:58:05.314Z,4.70
2023-05-25T21:00:31.821Z,4.20
2023-05-25T21:02:58.427Z,4.77
2023-05-25T21:05:24.968Z,4.60
2023-05-25T21:07:51.909Z,4.30
2023-05-25T21:10:18.446Z,4.77
2023-05-25T21:12:44.915Z,4.57
2023-05-25T21:15:11.874Z,4.80
2023-05-25T21:17:38.391Z,5.13
2023-05-25T21:20:05.220Z,5.07
2023-05-25T21:22:31.881Z,5.10
2023-05-25T21:24:58.391Z,5.00
2023-05-25T21:27:24.961Z,4.97
2023-05-25T21:29:52.056Z,5.47
2023-05-25T21:32:18.589Z,5.30
2023-05-25T21:34:45.123Z,4.83
2023-05-25T21:37:11.676Z,4.87
2023-05-25T21:39:38.250Z,4.83
2023-05-25T21:42:04.891Z,4.20
2023-05-25T21:44:31.404Z,4.43
2023-05-25T21:46:57.959Z,4.47
2023-05-25T21:49:24.504Z,4.50
2023-05-25T21:51:50.972Z,4.30
2023-05-25T21:54:17.438Z,5.13
2023-05-25T21:56:43.935Z,4.67
2023-05-25T21:59:10.463Z,4.67
2023-05-25T22:01:37.044Z,5.70
2023-05-25T22:04:03.679Z,4.73
2023-05-25T22:06:30.236Z,4.87
2023-05-25T22:08:56.757Z,5.27
2023-05-25T22:11:24.573Z,5.57
2023-05-25T22:13:51.201Z,5.93
2023-05-25T22:16:17.759Z,6.10
2023-05-25T22:18:44.287Z,6.20
2023-05-25T22:21:10.926Z,6.70
2023-05-25T22:23:37.517Z,6.63
2023-05-25T22:26:05.218Z,7.33
2023-05-25T22:28:31.810Z,8.50
2023-05-25T22:30:58.376Z,9.17
2023-05-25T22:33:24.921Z,12.87
2023-05-25T22:35:51.505Z,11.97
2023-05-25T22:38:17.985Z,12.10
2023-05-25T22:40:47.568Z,11.77
2023-05-25T22:43:14.662Z,10.77
2023-05-25T22:45:41.584Z,8.23
2023-05-25T22:48:08.306Z,8.63
2023-05-25T22:50:34.976Z,9.10
2023-05-25T22:53:01.605Z,8.63
2023-05-25T22:55:28.123Z,9.80
2023-05-25T22:57:54.651Z,10.50
2023-05-25T23:00:21.383Z,12.17
2023-05-25T23:02:48.054Z,12.10
2023-05-25T23:05:14.630Z,11.57
2023-05-25T23:07:41.473Z,12.20
2023-05-25T23:10:08.259Z,12.60
2023-05-25T23:12:34.767Z,12.90
2023-05-25T23:15:02.679Z,12.73
2023-05-25T23:17:29.217Z,12.90
2023-05-25T23:19:55.868Z,11.50
2023-05-25T23:22:22.437Z,13.23
2023-05-25T23:24:48.936Z,11.80
2023-05-25T23:27:15.536Z,13.17
2023-05-25T23:29:42.011Z,13.50
2023-05-25T23:32:08.612Z,13.27
2023-05-25T23:34:35.171Z,13.10
2023-05-25T23:37:03.333Z,12.60
2023-05-25T23:39:31.467Z,11.83
2023-05-25T23:41:58.007Z,13.40
2023-05-25T23:44:24.481Z,11.53
2023-05-25T23:46:50.996Z,10.83
2023-05-25T23:49:17.494Z,10.17
2023-05-25T23:51:44.209Z,9.87
2023-05-25T23:54:11.066Z,8.93
2023-05-25T23:56:37.608Z,8.37
2023-05-25T23:59:04.242Z,7.73
